Time;durP1;ratioP1;P1;durP2;ratioP2;P2;SDS_P1;SDS_P2;PMS_P1;PMS_P2;Temp;Humidity;BMP_temperature;BMP_pressure;BME280_temperature;BME280_humidity;BME280_pressure;Samples;Min_cycle;Max_cycle;Signal;HPM_P1;HPM_P2
2022/07/16 00:05:47;;;;;;;2.33;0.90;;;22.50;56.60;;;;;;10379770;28;20065;-60
2022/07/16 00:10:49;;;;;;;2.05;1.15;;;22.50;56.70;;;;;;10397941;28;20041;-60
2022/07/16 00:15:50;;;;;;;1.98;1.25;;;22.50;56.80;;;;;;10407985;28;20025;-61
2022/07/16 00:20:50;;;;;;;4.75;1.55;;;22.50;56.90;;;;;;10372811;28;20052;-60
2022/07/16 00:25:51;;;;;;;1.35;0.80;;;22.50;56.90;;;;;;10378751;28;20026;-60
2022/07/16 00:30:52;;;;;;;1.90;1.05;;;22.50;57.10;;;;;;10375395;28;20034;-60
2022/07/16 00:35:53;;;;;;;2.92;1.10;;;22.40;57.10;;;;;;10378303;28;20018;-60
2022/07/16 00:40:53;;;;;;;1.95;1.17;;;22.50;57.20;;;;;;10374367;28;20580;-60
2022/07/16 00:45:54;;;;;;;1.73;1.25;;;22.40;57.10;;;;;;10366534;28;20087;-60
2022/07/16 00:50:55;;;;;;;2.35;1.30;;;22.40;57.20;;;;;;10397193;28;20053;-60
2022/07/16 00:55:55;;;;;;;1.75;1.10;;;22.40;57.30;;;;;;10362800;28;20631;-61
2022/07/16 01:00:56;;;;;;;2.40;1.20;;;22.40;57.30;;;;;;10365758;28;20028;-60
2022/07/16 01:05:57;;;;;;;2.45;1.30;;;22.40;57.30;;;;;;10390854;28;20400;-60
2022/07/16 01:10:58;;;;;;;1.95;1.20;;;22.40;57.30;;;;;;10395322;28;20040;-60
2022/07/16 01:15:59;;;;;;;1.90;0.98;;;22.40;57.30;;;;;;10399532;28;20044;-61
2022/07/16 01:21:01;;;;;;;1.80;1.20;;;22.40;57.40;;;;;;10400131;28;20038;-60
2022/07/16 01:26:02;;;;;;;1.63;1.02;;;22.40;57.40;;;;;;10381663;28;20045;-60
2022/07/16 01:31:03;;;;;;;3.50;1.38;;;22.40;57.30;;;;;;10376187;28;20424;-60
2022/07/16 01:36:14;;;;;;;2.22;1.95;;;22.40;57.30;;;;;;10382179;28;20088;-61
2022/07/16 01:41:14;;;;;;;1.27;1.00;;;22.40;57.40;;;;;;10371702;28;20046;-61
2022/07/16 01:46:15;;;;;;;1.50;1.05;;;22.40;57.40;;;;;;10384925;28;20479;-60
2022/07/16 01:51:16;;;;;;;4.43;1.52;;;22.40;57.50;;;;;;10377524;28;20446;-60
2022/07/16 01:56:16;;;;;;;3.10;1.48;;;22.40;57.50;;;;;;10392440;28;20096;-61
2022/07/16 02:01:17;;;;;;;2.22;1.35;;;22.40;57.40;;;;;;10373992;28;20448;-61
2022/07/16 02:06:18;;;;;;;4.25;1.27;;;22.40;57.40;;;;;;10370446;28;20466;-61
2022/07/16 02:11:19;;;;;;;1.85;1.08;;;22.40;57.40;;;;;;10406043;28;20606;-60
2022/07/16 02:16:20;;;;;;;1.33;1.00;;;22.40;57.40;;;;;;10410237;28;20036;-60
2022/07/16 02:21:20;;;;;;;2.13;1.00;;;22.40;57.40;;;;;;10408125;28;20036;-60
2022/07/16 02:26:21;;;;;;;1.02;0.70;;;22.40;57.40;;;;;;10383395;28;20029;-61
2022/07/16 02:31:22;;;;;;;1.83;1.20;;;22.40;57.50;;;;;;10388834;28;20040;-61
2022/07/16 02:36:23;;;;;;;1.52;1.17;;;22.30;57.40;;;;;;10369870;28;20021;-60
2022/07/16 02:41:23;;;;;;;2.00;1.10;;;22.30;57.40;;;;;;10398616;28;20046;-61
2022/07/16 02:46:24;;;;;;;1.80;1.23;;;22.30;57.50;;;;;;10378607;28;20113;-61
2022/07/16 02:51:25;;;;;;;1.63;1.00;;;22.30;57.50;;;;;;10382354;28;20042;-60
2022/07/16 02:56:26;;;;;;;2.10;1.08;;;22.30;57.50;;;;;;10399051;28;20057;-60
2022/07/16 03:01:26;;;;;;;1.75;1.20;;;22.30;57.60;;;;;;10396585;28;20040;-61
2022/07/16 03:06:27;;;;;;;2.38;0.90;;;22.30;57.70;;;;;;10385754;28;20044;-61
2022/07/16 03:11:28;;;;;;;2.10;1.30;;;22.30;57.70;;;;;;10351438;28;20030;-60
2022/07/16 03:16:28;;;;;;;1.67;1.02;;;22.30;57.80;;;;;;10394949;28;20108;-61
2022/07/16 03:21:29;;;;;;;2.17;1.42;;;22.30;57.90;;;;;;10390855;28;20034;-60
2022/07/16 03:26:30;;;;;;;1.92;1.17;;;22.30;57.90;;;;;;10370386;28;20025;-60
2022/07/16 03:31:30;;;;;;;1.60;1.10;;;22.30;57.90;;;;;;10378532;28;20165;-60
2022/07/16 03:36:31;;;;;;;1.05;0.90;;;22.30;58.00;;;;;;10390247;28;20628;-60
2022/07/16 03:41:37;;;;;;;2.95;1.33;;;22.30;58.00;;;;;;10377316;28;20042;-60
2022/07/16 03:46:39;;;;;;;2.00;1.20;;;22.20;57.90;;;;;;10350675;28;20120;-60
2022/07/16 03:51:40;;;;;;;3.10;1.55;;;22.30;57.90;;;;;;10367053;28;20040;-60
2022/07/16 03:56:40;;;;;;;1.38;1.00;;;22.30;57.90;;;;;;10368332;28;20636;-60
2022/07/16 04:01:41;;;;;;;2.20;1.30;;;22.30;57.90;;;;;;10367938;28;20048;-60
2022/07/16 04:06:42;;;;;;;2.75;1.52;;;22.20;57.80;;;;;;10372020;28;20040;-60
2022/07/16 04:11:42;;;;;;;1.15;0.73;;;22.20;57.90;;;;;;10367439;28;20693;-61
2022/07/16 04:16:43;;;;;;;2.03;1.05;;;22.30;58.20;;;;;;10387449;28;20120;-60
2022/07/16 04:21:44;;;;;;;2.13;1.38;;;22.20;58.30;;;;;;10386822;28;20616;-61
2022/07/16 04:26:44;;;;;;;2.92;1.60;;;22.20;58.50;;;;;;10391189;28;20551;-61
2022/07/16 04:31:45;;;;;;;2.25;1.40;;;22.20;58.60;;;;;;10378967;28;20033;-61
2022/07/16 04:36:46;;;;;;;1.73;1.30;;;22.30;58.60;;;;;;10363678;28;20049;-61
2022/07/16 04:41:46;;;;;;;2.38;1.40;;;22.20;58.60;;;;;;10381530;28;20493;-60
2022/07/16 04:46:47;;;;;;;2.63;1.55;;;22.30;58.70;;;;;;10367107;28;20477;-61
2022/07/16 04:51:48;;;;;;;2.40;1.55;;;22.30;58.80;;;;;;10387767;28;20487;-61
2022/07/16 04:56:48;;;;;;;2.83;1.77;;;22.30;59.00;;;;;;10392771;28;20958;-62
2022/07/16 05:01:49;;;;;;;3.83;1.83;;;22.30;59.40;;;;;;10395094;28;20033;-62
2022/07/16 05:06:50;;;;;;;3.72;2.22;;;22.30;59.30;;;;;;10388186;28;20034;-63
2022/07/16 05:11:50;;;;;;;3.55;1.65;;;22.30;59.90;;;;;;10374146;28;20588;-60
2022/07/16 05:16:51;;;;;;;4.50;1.73;;;22.30;60.40;;;;;;10385426;28;20373;-62
2022/07/16 05:21:52;;;;;;;4.45;1.52;;;22.30;60.20;;;;;;10370250;28;20026;-63
2022/07/16 05:26:53;;;;;;;3.40;1.48;;;22.30;60.90;;;;;;10377147;28;20033;-62
2022/07/16 05:31:53;;;;;;;4.78;1.67;;;22.30;61.20;;;;;;10386313;28;20049;-62
2022/07/16 05:36:54;;;;;;;10.23;2.10;;;22.30;61.20;;;;;;10405185;28;20040;-61
2022/07/16 05:41:55;;;;;;;9.20;2.00;;;22.30;61.20;;;;;;10395463;28;20045;-62
2022/07/16 05:46:55;;;;;;;7.20;2.22;;;22.30;60.50;;;;;;10387397;28;20088;-62
2022/07/16 05:51:56;;;;;;;24.02;4.47;;;22.30;60.70;;;;;;10381967;28;20053;-63
2022/07/16 05:56:57;;;;;;;14.48;2.67;;;22.30;60.90;;;;;;10372934;28;20428;-61
2022/07/16 06:01:58;;;;;;;16.73;3.08;;;22.30;60.60;;;;;;10372422;28;20033;-61
2022/07/16 06:06:59;;;;;;;14.13;2.70;;;22.30;60.60;;;;;;10366789;28;20032;-64
2022/07/16 06:11:59;;;;;;;12.23;2.72;;;22.30;60.70;;;;;;10375458;28;20038;-65
2022/07/16 06:17:00;;;;;;;11.95;3.25;;;22.30;60.50;;;;;;10387998;28;20112;-63
2022/07/16 06:22:01;;;;;;;11.45;2.33;;;22.30;60.20;;;;;;10390869;28;20487;-65
2022/07/16 06:27:02;;;;;;;17.10;2.30;;;22.30;60.70;;;;;;10389385;28;20033;-66
2022/07/16 06:32:04;;;;;;;10.65;2.80;;;22.30;60.10;;;;;;10390720;28;20041;-65
2022/07/16 06:37:04;;;;;;;8.32;2.08;;;22.30;60.00;;;;;;10381189;28;20026;-66
2022/07/16 06:42:05;;;;;;;6.63;1.60;;;22.30;59.80;;;;;;10375688;28;20042;-65
2022/07/16 06:47:07;;;;;;;9.05;1.52;;;22.30;59.80;;;;;;10385866;28;20404;-66
2022/07/16 06:52:07;;;;;;;3.85;1.40;;;22.30;59.50;;;;;;10391657;28;20017;-66
2022/07/16 06:57:08;;;;;;;6.28;1.83;;;22.30;59.20;;;;;;10386012;28;20025;-63
2022/07/16 07:02:09;;;;;;;3.33;1.40;;;22.30;58.80;;;;;;10403883;28;20029;-66
2022/07/16 07:07:10;;;;;;;6.10;1.98;;;22.30;58.80;;;;;;10380938;28;20060;-64
2022/07/16 07:12:10;;;;;;;5.97;1.30;;;22.30;58.90;;;;;;10372291;28;20030;-63
2022/07/16 07:17:11;;;;;;;4.53;1.50;;;22.30;58.60;;;;;;10393261;28;20030;-63
2022/07/16 07:22:12;;;;;;;8.65;1.52;;;22.30;58.30;;;;;;10367563;28;20116;-63
2022/07/16 07:27:13;;;;;;;3.58;1.10;;;22.30;58.00;;;;;;10395544;28;20117;-63
2022/07/16 07:32:14;;;;;;;3.00;1.27;;;22.30;58.20;;;;;;10382785;28;20064;-64
2022/07/16 07:37:15;;;;;;;3.17;1.58;;;22.30;58.20;;;;;;10398726;28;20065;-64
2022/07/16 07:42:15;;;;;;;3.75;1.20;;;22.30;58.30;;;;;;10408237;28;20046;-64
2022/07/16 07:47:16;;;;;;;4.18;1.92;;;22.30;58.30;;;;;;10407848;28;20037;-64
2022/07/16 07:52:16;;;;;;;4.72;1.85;;;22.30;58.30;;;;;;10395909;28;20120;-64
2022/07/16 07:57:17;;;;;;;6.05;1.85;;;22.30;58.30;;;;;;10370786;28;20113;-66
2022/07/16 08:02:18;;;;;;;5.03;1.90;;;22.40;58.00;;;;;;10385015;28;20052;-67
2022/07/16 08:07:19;;;;;;;3.83;1.30;;;22.40;57.20;;;;;;10368484;28;20113;-64
2022/07/16 08:12:19;;;;;;;6.15;1.50;;;22.40;56.70;;;;;;10397245;28;20025;-64
2022/07/16 08:17:20;;;;;;;5.28;1.48;;;22.40;56.60;;;;;;10387740;28;20061;-64
2022/07/16 08:22:21;;;;;;;5.55;1.27;;;22.40;56.70;;;;;;10382842;28;20107;-65
2022/07/16 08:27:21;;;;;;;3.67;1.70;;;22.40;56.80;;;;;;10374017;28;20041;-65
2022/07/16 08:32:22;;;;;;;3.38;1.42;;;22.40;56.90;;;;;;10388789;28;20052;-64
2022/07/16 08:37:39;;;;;;;5.68;1.73;;;22.40;56.70;;;;;;10398292;28;20515;-64
2022/07/16 08:42:39;;;;;;;6.90;1.30;;;22.40;56.80;;;;;;10384718;28;20117;-65
2022/07/16 08:47:40;;;;;;;5.15;1.30;;;22.50;57.00;;;;;;10389421;28;20461;-65
2022/07/16 08:52:50;;;;;;;4.95;1.65;;;22.50;57.00;;;;;;10391104;28;20088;-65
2022/07/16 08:57:52;;;;;;;12.43;2.22;;;22.50;57.00;;;;;;10371626;28;20025;-65
2022/07/16 09:02:54;;;;;;;6.22;1.58;;;22.50;56.80;;;;;;10377722;28;20085;-65
2022/07/16 09:07:55;;;;;;;6.20;1.20;;;22.50;56.80;;;;;;10413627;28;20034;-65
2022/07/16 09:12:58;;;;;;;13.45;2.40;;;22.50;56.70;;;;;;10399391;28;20034;-65
2022/07/16 09:18:24;;;;;;;6.90;1.65;;;22.50;57.20;;;;;;10370285;28;20116;-65
2022/07/16 09:23:30;;;;;;;6.97;1.75;;;22.50;57.00;;;;;;10401166;28;20417;-65
2022/07/16 09:29:01;;;;;;;15.25;2.08;;;22.40;57.10;;;;;;10380331;28;20025;-66
2022/07/16 09:34:13;;;;;;;11.10;1.85;;;22.40;56.40;;;;;;10385064;28;20577;-66
2022/07/16 09:39:18;;;;;;;9.57;1.67;;;22.40;56.80;;;;;;10386794;28;20077;-66
2022/07/16 09:44:28;;;;;;;7.18;1.35;;;22.40;55.40;;;;;;10386792;28;20076;-66
2022/07/16 09:49:33;;;;;;;11.55;2.13;;;22.40;54.50;;;;;;10388238;28;20046;-66
2022/07/16 09:54:37;;;;;;;3.72;0.95;;;22.40;53.20;;;;;;10376256;28;20105;-67
2022/07/16 09:59:40;;;;;;;5.03;1.17;;;22.40;53.20;;;;;;10388095;28;20041;-66
2022/07/16 10:04:40;;;;;;;1.98;0.95;;;22.40;52.50;;;;;;10386768;28;20129;-68
2022/07/16 10:09:41;;;;;;;5.50;1.23;;;22.40;52.30;;;;;;10400590;28;20034;-67
2022/07/16 10:14:52;;;;;;;3.88;0.90;;;22.40;51.80;;;;;;10371992;28;20389;-67
2022/07/16 10:20:19;;;;;;;3.55;1.20;;;22.40;51.60;;;;;;10383338;28;20467;-67
2022/07/16 10:25:27;;;;;;;4.25;0.90;;;22.40;50.80;;;;;;10392006;28;20025;-67
2022/07/16 10:30:32;;;;;;;4.00;1.02;;;22.30;50.50;;;;;;10384969;28;20034;-67
2022/07/16 10:35:35;;;;;;;2.92;0.80;;;22.30;50.30;;;;;;10380294;28;20609;-66
2022/07/16 10:40:38;;;;;;;3.33;1.15;;;22.30;49.90;;;;;;10370623;28;20045;-64
2022/07/16 10:45:54;;;;;;;3.40;1.52;;;22.30;49.40;;;;;;10372442;28;20030;-66
2022/07/16 10:51:16;;;;;;;6.20;1.75;;;22.40;49.70;;;;;;10371702;28;20034;-67
2022/07/16 10:56:31;;;;;;;6.82;1.45;;;22.30;49.50;;;;;;10373434;28;20417;-66
2022/07/16 11:01:32;;;;;;;7.30;1.45;;;22.40;49.60;;;;;;10405341;28;20121;-66
2022/07/16 11:06:33;;;;;;;7.55;2.25;;;22.40;49.70;;;;;;10378653;28;20030;-67
2022/07/16 11:11:40;;;;;;;4.53;0.95;;;22.30;49.50;;;;;;10366124;28;20037;-66
2022/07/16 11:16:51;;;;;;;4.82;0.88;;;22.30;49.50;;;;;;10379435;28;20037;-66
2022/07/16 11:22:01;;;;;;;5.28;1.10;;;22.30;49.50;;;;;;10365625;28;20065;-67
2022/07/16 11:27:02;;;;;;;3.40;0.98;;;22.30;49.20;;;;;;10391500;28;20053;-66
2022/07/16 11:32:04;;;;;;;7.03;1.75;;;22.30;49.70;;;;;;10406756;28;20120;-66
2022/07/16 11:37:04;;;;;;;11.73;1.92;;;22.30;49.00;;;;;;10394012;28;20033;-66
2022/07/16 11:42:06;;;;;;;10.98;1.95;;;22.30;49.90;;;;;;10381490;28;20046;-66
2022/07/16 11:47:09;;;;;;;9.00;1.58;;;22.30;49.60;;;;;;10380041;28;20385;-66
2022/07/16 11:52:24;;;;;;;18.65;2.58;;;22.30;49.20;;;;;;10380879;28;20113;-66
2022/07/16 11:57:25;;;;;;;10.43;2.15;;;22.30;49.20;;;;;;10406352;28;20021;-66
2022/07/16 12:02:27;;;;;;;12.60;2.95;;;22.30;49.70;;;;;;10393871;28;20041;-67
2022/07/16 12:07:29;;;;;;;33.88;3.53;;;22.30;49.70;;;;;;10406062;28;20029;-67
2022/07/16 12:12:34;;;;;;;31.60;4.70;;;22.30;50.80;;;;;;10408379;28;20041;-65
2022/07/16 12:17:40;;;;;;;30.50;4.32;;;22.30;50.60;;;;;;10382480;28;20034;-66
2022/07/16 12:22:57;;;;;;;16.48;3.28;;;22.30;51.20;;;;;;10380657;28;20147;-67
2022/07/16 12:28:03;;;;;;;16.88;2.40;;;22.30;50.20;;;;;;10411637;28;20492;-66
2022/07/16 12:33:07;;;;;;;26.80;4.15;;;22.30;50.20;;;;;;10367333;28;20677;-64
2022/07/16 12:38:39;;;;;;;28.20;5.05;;;22.30;50.50;;;;;;10367225;28;20474;-65
2022/07/16 12:43:42;;;;;;;37.47;3.83;;;22.30;50.40;;;;;;10378979;28;20034;-66
2022/07/16 12:48:49;;;;;;;21.48;3.15;;;22.40;50.50;;;;;;10365822;28;20034;-66
2022/07/16 12:53:51;;;;;;;18.80;3.20;;;22.40;50.50;;;;;;10378636;28;20049;-64
2022/07/16 12:58:52;;;;;;;13.77;2.75;;;22.40;50.70;;;;;;10379359;28;20092;-64
2022/07/16 13:03:53;;;;;;;9.45;1.95;;;22.40;50.70;;;;;;10398534;28;20056;-64
2022/07/16 13:08:54;;;;;;;8.85;1.70;;;22.40;50.40;;;;;;10384041;28;20526;-65
2022/07/16 13:13:55;;;;;;;6.97;2.03;;;22.40;50.40;;;;;;10363874;28;20136;-66
2022/07/16 13:18:57;;;;;;;7.30;1.23;;;22.40;49.90;;;;;;10391284;28;20030;-64
2022/07/16 13:23:58;;;;;;;8.82;1.90;;;22.30;49.40;;;;;;10384150;28;20036;-64
2022/07/16 13:28:59;;;;;;;12.18;2.22;;;22.40;49.80;;;;;;10387694;28;20029;-64
2022/07/16 13:34:00;;;;;;;14.75;1.60;;;22.40;50.20;;;;;;10394438;28;20504;-64
2022/07/16 13:39:01;;;;;;;9.93;2.22;;;22.40;49.50;;;;;;10387761;28;20046;-64
2022/07/16 13:44:02;;;;;;;12.95;1.90;;;22.40;49.10;;;;;;10406315;28;20042;-64
2022/07/16 13:49:03;;;;;;;13.43;2.08;;;22.40;48.90;;;;;;10385111;28;20040;-64
2022/07/16 13:54:04;;;;;;;9.18;1.92;;;22.40;48.70;;;;;;10384718;28;20018;-64
2022/07/16 13:59:05;;;;;;;4.38;1.00;;;22.40;48.60;;;;;;10393595;28;20041;-64
2022/07/16 14:04:09;;;;;;;7.82;1.50;;;22.40;48.20;;;;;;10411046;28;20025;-66
2022/07/16 14:09:11;;;;;;;8.18;1.60;;;22.40;47.80;;;;;;10390203;28;20029;-65
2022/07/16 14:14:12;;;;;;;10.75;2.20;;;22.40;47.70;;;;;;10394855;28;20453;-65
2022/07/16 14:19:13;;;;;;;15.98;2.03;;;22.40;48.00;;;;;;10398428;28;20128;-65
2022/07/16 14:24:14;;;;;;;16.30;1.60;;;22.50;48.10;;;;;;10400049;28;20033;-65
2022/07/16 14:29:14;;;;;;;12.95;1.77;;;22.40;47.60;;;;;;10401216;28;20055;-64
2022/07/16 14:34:15;;;;;;;12.43;1.80;;;22.40;47.90;;;;;;10369027;28;20026;-65
2022/07/16 14:39:16;;;;;;;13.40;2.30;;;22.40;47.50;;;;;;10408554;28;20734;-65
2022/07/16 14:44:17;;;;;;;11.82;1.70;;;22.50;47.80;;;;;;10383838;28;20416;-66
2022/07/16 14:49:17;;;;;;;16.92;2.03;;;22.50;47.60;;;;;;10398209;28;20113;-66
2022/07/16 14:54:18;;;;;;;12.43;1.58;;;22.50;47.40;;;;;;10405579;28;20027;-66
2022/07/16 14:59:19;;;;;;;10.57;1.80;;;22.50;47.80;;;;;;10395701;28;20022;-67
2022/07/16 15:04:20;;;;;;;18.88;3.55;;;22.50;47.90;;;;;;10381740;28;20029;-66
2022/07/16 15:09:20;;;;;;;9.30;1.58;;;22.50;47.70;;;;;;10384418;28;20429;-66
2022/07/16 15:14:21;;;;;;;12.35;2.45;;;22.50;48.00;;;;;;10379575;28;20120;-67
2022/07/16 15:19:22;;;;;;;15.20;2.47;;;22.50;48.10;;;;;;10383860;28;20033;-66
2022/07/16 15:24:23;;;;;;;9.52;1.60;;;22.50;48.50;;;;;;10371567;28;20129;-66
2022/07/16 15:29:24;;;;;;;11.95;4.50;;;22.50;47.90;;;;;;10384344;28;20456;-67
2022/07/16 15:34:24;;;;;;;21.17;5.00;;;22.80;49.60;;;;;;10368418;28;20057;-67
2022/07/16 15:39:25;;;;;;;13.82;2.78;;;22.90;51.40;;;;;;10394835;28;20405;-67
2022/07/16 15:44:26;;;;;;;12.82;3.30;;;23.00;49.20;;;;;;10394835;28;20037;-68
2022/07/16 15:49:27;;;;;;;9.35;3.33;;;23.00;50.00;;;;;;10390371;28;20083;-67
2022/07/16 15:54:28;;;;;;;8.32;3.25;;;23.00;50.60;;;;;;10408779;28;20032;-67
2022/07/16 15:59:28;;;;;;;10.48;3.22;;;23.10;51.60;;;;;;10377867;28;20025;-67
2022/07/16 16:04:30;;;;;;;9.23;2.55;;;23.10;51.90;;;;;;10395861;28;20079;-66
2022/07/16 16:09:31;;;;;;;11.77;2.50;;;23.10;51.90;;;;;;10397521;28;20112;-67
2022/07/16 16:14:31;;;;;;;4.53;2.22;;;23.40;51.00;;;;;;10381786;28;20505;-67
2022/07/16 16:19:32;;;;;;;6.40;1.88;;;23.20;50.80;;;;;;10370654;28;20030;-67
2022/07/16 16:24:33;;;;;;;2.33;1.25;;;22.90;50.70;;;;;;10389142;28;20078;-66
2022/07/16 16:29:34;;;;;;;5.68;1.50;;;22.80;50.00;;;;;;10381667;28;20030;-64
2022/07/16 16:34:34;;;;;;;5.43;1.45;;;22.80;50.10;;;;;;10377455;28;20030;-64
2022/07/16 16:39:35;;;;;;;5.13;1.00;;;22.70;49.90;;;;;;10366552;28;20058;-64
2022/07/16 16:44:37;;;;;;;5.68;1.63;;;22.70;50.10;;;;;;10373046;28;20038;-64
2022/07/16 16:49:37;;;;;;;5.25;1.45;;;22.70;48.80;;;;;;10373745;28;20032;-65
2022/07/16 16:54:38;;;;;;;2.72;0.93;;;22.70;49.50;;;;;;10401539;28;20112;-64
2022/07/16 16:59:39;;;;;;;4.95;1.33;;;22.70;49.00;;;;;;10413281;28;20128;-64
2022/07/16 17:04:40;;;;;;;5.63;1.98;;;22.70;48.10;;;;;;10415227;28;20033;-63
2022/07/16 17:09:41;;;;;;;10.18;1.50;;;22.70;48.10;;;;;;10414180;28;20026;-63
2022/07/16 17:14:41;;;;;;;7.10;1.83;;;22.70;48.20;;;;;;10413401;28;20108;-63
2022/07/16 17:19:42;;;;;;;6.13;1.50;;;22.70;48.30;;;;;;10385607;28;20108;-62
2022/07/16 17:24:43;;;;;;;7.07;2.58;;;22.70;48.30;;;;;;10399084;28;20041;-62
2022/07/16 17:29:43;;;;;;;9.57;1.50;;;22.70;48.60;;;;;;10385101;28;20461;-62
2022/07/16 17:34:44;;;;;;;9.82;1.80;;;22.60;48.10;;;;;;10376751;28;20029;-62
2022/07/16 17:39:45;;;;;;;9.27;1.20;;;22.60;47.70;;;;;;10393635;28;20053;-62
2022/07/16 17:44:46;;;;;;;8.65;1.52;;;22.60;48.00;;;;;;10387152;28;20124;-63
2022/07/16 17:49:53;;;;;;;8.63;1.48;;;22.60;48.10;;;;;;10404273;28;20049;-63
2022/07/16 17:54:55;;;;;;;4.95;1.20;;;22.70;48.70;;;;;;10398928;28;20037;-62
2022/07/16 17:59:56;;;;;;;12.18;1.88;;;22.60;48.70;;;;;;10381946;28;20040;-62
2022/07/16 18:04:57;;;;;;;9.60;1.58;;;22.60;48.50;;;;;;10395835;28;20495;-63
2022/07/16 18:09:58;;;;;;;4.28;1.45;;;22.60;48.50;;;;;;10384865;28;20026;-63
2022/07/16 18:14:58;;;;;;;6.32;1.45;;;22.60;48.60;;;;;;10377956;28;20026;-63
2022/07/16 18:19:59;;;;;;;5.47;1.40;;;22.60;49.10;;;;;;10376296;28;20029;-63
2022/07/16 18:25:00;;;;;;;4.20;1.10;;;22.70;48.60;;;;;;10389888;28;20060;-63
2022/07/16 18:30:02;;;;;;;5.57;1.40;;;22.60;48.70;;;;;;10374721;28;20028;-63
2022/07/16 18:35:05;;;;;;;3.70;1.20;;;22.60;49.50;;;;;;10386766;28;20105;-63
2022/07/16 18:40:06;;;;;;;6.50;1.27;;;22.60;49.10;;;;;;10392147;28;20049;-64
2022/07/16 18:45:08;;;;;;;3.95;0.90;;;22.60;48.70;;;;;;10385094;28;20029;-62
2022/07/16 18:50:09;;;;;;;2.80;0.73;;;22.60;49.40;;;;;;10382548;28;20026;-63
2022/07/16 18:55:10;;;;;;;2.53;0.73;;;22.60;49.60;;;;;;10385802;28;20014;-63
2022/07/16 19:00:11;;;;;;;3.60;0.80;;;22.60;49.50;;;;;;10385651;28;20033;-63
2022/07/16 19:05:12;;;;;;;3.42;0.77;;;22.60;49.60;;;;;;10381579;28;20088;-63
2022/07/16 19:10:13;;;;;;;3.42;0.90;;;22.60;50.40;;;;;;10383003;28;20082;-63
2022/07/16 19:15:13;;;;;;;1.95;0.70;;;22.60;49.60;;;;;;10387797;28;20038;-63
2022/07/16 19:20:14;;;;;;;7.93;1.65;;;22.60;50.00;;;;;;10381002;28;20092;-63
2022/07/16 19:25:15;;;;;;;5.70;1.65;;;22.60;50.50;;;;;;10399145;28;20041;-62
2022/07/16 19:30:16;;;;;;;3.13;0.75;;;22.60;51.00;;;;;;10384996;28;20047;-62
2022/07/16 19:35:17;;;;;;;3.25;0.85;;;22.60;51.10;;;;;;10367508;28;20033;-62
2022/07/16 19:40:18;;;;;;;1.95;1.23;;;22.60;51.00;;;;;;10368217;28;20091;-63
2022/07/16 19:45:19;;;;;;;3.92;1.00;;;22.60;51.10;;;;;;10366916;28;20109;-62
2022/07/16 19:50:19;;;;;;;5.68;1.00;;;22.60;51.20;;;;;;10371067;28;20033;-62
2022/07/16 20:00:39;;;;;;;5.10;0.88;;;22.60;51.50;;;;;;10385325;28;20045;-62
2022/07/16 20:05:40;;;;;;;3.88;1.05;;;22.60;51.50;;;;;;10356918;28;20038;-62
2022/07/16 20:10:40;;;;;;;3.30;1.10;;;22.60;51.50;;;;;;10408515;28;20384;-62
2022/07/16 20:15:41;;;;;;;4.03;1.63;;;22.60;51.60;;;;;;10392082;28;20465;-62
2022/07/16 20:20:43;;;;;;;3.67;1.00;;;22.60;51.60;;;;;;10385811;28;20577;-62
2022/07/16 20:25:44;;;;;;;2.17;1.20;;;22.60;51.60;;;;;;10386196;28;20484;-62
2022/07/16 20:30:45;;;;;;;2.70;1.00;;;22.60;51.70;;;;;;10388659;28;20017;-63
2022/07/16 20:35:45;;;;;;;4.55;1.10;;;22.60;51.70;;;;;;10366417;28;20025;-63
2022/07/16 20:40:46;;;;;;;3.25;1.13;;;22.60;51.80;;;;;;10392207;28;20073;-62
2022/07/16 20:45:47;;;;;;;2.25;1.00;;;22.60;51.80;;;;;;10364955;28;20030;-63
2022/07/16 20:50:48;;;;;;;2.08;0.93;;;22.60;51.90;;;;;;10389282;28;20490;-62
2022/07/16 20:55:49;;;;;;;2.55;0.68;;;22.60;51.90;;;;;;10390225;28;20058;-60
2022/07/16 21:00:49;;;;;;;3.65;1.33;;;22.60;51.90;;;;;;10366765;28;20793;-62
2022/07/16 21:05:50;;;;;;;1.50;0.70;;;22.60;51.90;;;;;;10378783;28;20030;-63
2022/07/16 21:10:55;;;;;;;2.63;0.70;;;22.60;52.00;;;;;;10364986;28;20030;-62
2022/07/16 21:15:55;;;;;;;1.90;0.98;;;22.50;51.80;;;;;;10365343;28;20018;-63
2022/07/16 21:20:56;;;;;;;2.85;0.90;;;22.50;51.80;;;;;;10404823;28;20045;-63
2022/07/16 21:25:57;;;;;;;1.65;0.90;;;22.50;51.80;;;;;;10365294;28;20443;-63
2022/07/16 21:30:57;;;;;;;2.85;0.93;;;22.50;51.90;;;;;;10392902;28;20113;-63
2022/07/16 21:35:58;;;;;;;2.85;1.02;;;22.60;51.90;;;;;;10402714;28;20029;-62
2022/07/16 21:40:59;;;;;;;4.60;1.00;;;22.50;51.80;;;;;;10385246;28;20050;-63
2022/07/16 21:46:00;;;;;;;2.78;0.88;;;22.50;51.80;;;;;;10371144;28;20045;-62
2022/07/16 21:51:02;;;;;;;3.13;1.25;;;22.50;51.80;;;;;;10371301;28;20034;-63
2022/07/16 21:56:02;;;;;;;3.22;0.93;;;22.50;51.80;;;;;;10371103;28;20033;-63
2022/07/16 22:01:03;;;;;;;3.53;0.70;;;22.50;51.80;;;;;;10360951;28;20044;-63
2022/07/16 22:06:04;;;;;;;2.05;0.98;;;22.50;51.80;;;;;;10391841;28;20030;-63
2022/07/16 22:11:05;;;;;;;3.05;0.80;;;22.50;51.70;;;;;;10410127;28;20083;-63
2022/07/16 22:16:06;;;;;;;3.33;1.08;;;22.50;51.80;;;;;;10397548;28;20349;-63
2022/07/16 22:21:07;;;;;;;1.88;1.00;;;22.50;51.80;;;;;;10398797;28;20048;-63
2022/07/16 22:26:07;;;;;;;2.35;0.68;;;22.50;51.80;;;;;;10369863;28;20026;-62
2022/07/16 22:31:09;;;;;;;2.75;1.15;;;22.50;51.80;;;;;;10379350;28;20061;-63
2022/07/16 22:36:11;;;;;;;1.55;0.80;;;22.50;51.80;;;;;;10369555;28;20022;-63
2022/07/16 22:41:11;;;;;;;3.20;0.98;;;22.40;51.80;;;;;;10379002;28;20054;-63
2022/07/16 22:46:12;;;;;;;2.92;1.10;;;22.50;51.80;;;;;;10369312;28;20120;-63
2022/07/16 22:51:13;;;;;;;2.22;0.60;;;22.40;51.80;;;;;;10369101;28;20030;-63
2022/07/16 22:56:13;;;;;;;1.85;0.60;;;22.40;51.80;;;;;;10365844;28;20080;-63
2022/07/16 23:01:14;;;;;;;1.38;0.65;;;22.40;51.80;;;;;;10368937;28;20030;-63
2022/07/16 23:06:15;;;;;;;1.27;0.65;;;22.40;51.80;;;;;;10405253;28;20044;-63
2022/07/16 23:11:16;;;;;;;1.75;0.90;;;22.40;51.80;;;;;;10384800;28;20056;-64
2022/07/16 23:16:17;;;;;;;2.25;0.88;;;22.40;51.90;;;;;;10368073;28;20037;-63
2022/07/16 23:21:17;;;;;;;2.05;0.90;;;22.40;51.90;;;;;;10401318;28;20030;-62
2022/07/16 23:26:18;;;;;;;2.17;0.85;;;22.40;51.90;;;;;;10367898;28;20030;-63
2022/07/16 23:31:19;;;;;;;1.33;0.77;;;22.40;51.80;;;;;;10391202;28;20040;-63
2022/07/16 23:36:20;;;;;;;4.07;1.10;;;22.40;51.80;;;;;;10391598;28;20018;-63
2022/07/16 23:41:21;;;;;;;1.75;1.10;;;22.40;51.80;;;;;;10406975;28;20053;-64
2022/07/16 23:46:21;;;;;;;2.38;0.60;;;22.40;51.90;;;;;;10403555;28;20424;-63
2022/07/16 23:51:22;;;;;;;2.33;1.10;;;22.40;51.90;;;;;;10366032;28;20038;-63
2022/07/16 23:56:23;;;;;;;2.42;0.93;;;22.40;51.70;;;;;;10366820;28;20499;-63
